createdAt,value
2022-11-12T00:01:17.758Z,9.71
2022-11-12T00:02:49.485Z,9.69
2022-11-12T00:04:20.985Z,9.65
2022-11-12T00:05:53.664Z,9.65
2022-11-12T00:07:25.232Z,9.65
2022-11-12T00:08:56.807Z,9.66
2022-11-12T00:10:28.378Z,9.65
2022-11-12T00:12:00.034Z,9.63
2022-11-12T00:13:31.773Z,9.64
2022-11-12T00:15:03.543Z,9.64
2022-11-12T00:16:35.155Z,9.65
2022-11-12T00:18:07.747Z,9.64
2022-11-12T00:19:39.501Z,9.61
2022-11-12T00:21:11.012Z,9.57
2022-11-12T00:22:42.837Z,9.53
2022-11-12T00:24:14.453Z,9.48
2022-11-12T00:25:46.255Z,9.43
2022-11-12T00:27:17.816Z,9.36
2022-11-12T00:28:49.550Z,9.37
2022-11-12T00:30:21.135Z,9.36
2022-11-12T00:31:52.676Z,9.34
2022-11-12T00:33:24.523Z,9.37
2022-11-12T00:34:56.143Z,9.35
2022-11-12T00:36:27.968Z,9.34
2022-11-12T00:37:59.755Z,9.27
2022-11-12T00:39:31.308Z,9.27
2022-11-12T00:41:03.259Z,9.27
2022-11-12T00:42:34.797Z,9.27
2022-11-12T00:44:06.572Z,9.27
2022-11-12T00:45:38.158Z,9.26
2022-11-12T00:47:10.072Z,9.25
2022-11-12T00:48:41.670Z,9.25
2022-11-12T00:50:13.263Z,9.24
2022-11-12T00:51:44.880Z,9.24
2022-11-12T00:53:16.403Z,9.21
2022-11-12T00:54:47.995Z,9.21
2022-11-12T00:56:22.152Z,9.18
2022-11-12T00:57:54.060Z,9.21
2022-11-12T00:59:25.647Z,9.19
2022-11-12T01:00:57.255Z,9.21
2022-11-12T01:02:28.781Z,9.19
2022-11-12T01:04:00.500Z,9.18
2022-11-12T01:05:33.122Z,9.16
2022-11-12T01:07:04.711Z,9.14
2022-11-12T01:08:36.369Z,9.07
2022-11-12T01:10:08.594Z,9.01
2022-11-12T01:11:40.635Z,8.98
2022-11-12T01:13:12.131Z,8.95
2022-11-12T01:14:43.669Z,8.91
2022-11-12T01:16:19.991Z,8.88
2022-11-12T01:17:51.720Z,8.87
2022-11-12T01:19:23.302Z,8.87
2022-11-12T01:20:55.546Z,8.91
2022-11-12T01:22:27.152Z,8.91
2022-11-12T01:23:59.207Z,8.91
2022-11-12T01:25:30.787Z,8.89
2022-11-12T01:27:02.407Z,8.87
2022-11-12T01:28:34.416Z,8.85
2022-11-12T01:30:06.196Z,8.84
2022-11-12T01:31:38.140Z,8.83
2022-11-12T01:33:09.761Z,8.79
2022-11-12T01:34:41.331Z,8.76
2022-11-12T01:36:13.258Z,8.74
2022-11-12T01:37:44.773Z,8.70
2022-11-12T01:39:16.372Z,8.67
2022-11-12T01:40:47.858Z,8.67
2022-11-12T01:42:19.370Z,8.70
2022-11-12T01:44:09.490Z,8.73
2022-11-12T01:45:41.730Z,8.77
2022-11-12T01:47:23.290Z,8.82
2022-11-12T01:48:56.098Z,8.84
2022-11-12T01:50:28.513Z,8.87
2022-11-12T01:52:02.495Z,8.89
2022-11-12T01:53:34.708Z,8.93
2022-11-12T01:55:14.461Z,8.95
2022-11-12T01:56:46.077Z,8.97
2022-11-12T01:58:19.256Z,8.99
2022-11-12T01:59:51.047Z,9.00
2022-11-12T02:01:22.933Z,9.01
2022-11-12T02:02:55.662Z,9.03
2022-11-12T02:04:27.706Z,9.05
2022-11-12T02:06:00.882Z,9.07
2022-11-12T02:07:32.467Z,9.10
2022-11-12T02:09:04.061Z,9.10
2022-11-12T02:10:35.878Z,9.09
2022-11-12T02:12:07.638Z,9.17
2022-11-12T02:13:57.878Z,9.21
2022-11-12T02:15:29.640Z,9.28
2022-11-12T02:17:01.482Z,9.29
2022-11-12T02:18:33.035Z,9.26
2022-11-12T02:20:05.180Z,9.23
2022-11-12T02:21:36.709Z,9.19
2022-11-12T02:23:09.660Z,9.17
2022-11-12T02:24:41.389Z,9.14
2022-11-12T02:26:13.171Z,9.17
2022-11-12T02:27:44.813Z,9.18
2022-11-12T02:29:16.626Z,9.19
2022-11-12T02:30:48.920Z,9.20
2022-11-12T02:32:20.657Z,9.18
2022-11-12T02:33:52.258Z,9.17
2022-11-12T02:35:23.849Z,9.17
2022-11-12T02:36:55.452Z,9.16
2022-11-12T02:38:27.478Z,9.10
2022-11-12T02:39:59.868Z,9.01
2022-11-12T02:41:32.058Z,8.92
2022-11-12T02:43:03.714Z,8.84
2022-11-12T02:44:35.213Z,8.78
2022-11-12T02:46:06.990Z,8.73
2022-11-12T02:47:38.519Z,8.69
2022-11-12T02:49:10.192Z,8.70
2022-11-12T02:50:41.753Z,8.73
2022-11-12T02:52:13.312Z,8.79
2022-11-12T02:53:45.327Z,8.84
2022-11-12T02:55:16.983Z,8.86
2022-11-12T02:56:48.492Z,8.81
2022-11-12T02:58:22.961Z,8.77
2022-11-12T02:59:55.087Z,8.76
2022-11-12T03:01:26.888Z,8.71
2022-11-12T03:03:01.502Z,8.63
2022-11-12T03:04:33.003Z,8.63
2022-11-12T03:06:04.768Z,8.60
2022-11-12T03:07:36.868Z,8.59
2022-11-12T03:09:08.457Z,8.60
2022-11-12T03:10:40.576Z,8.60
2022-11-12T03:12:12.230Z,8.62
2022-11-12T03:13:49.591Z,8.66
2022-11-12T03:15:21.117Z,8.71
2022-11-12T03:16:52.673Z,8.69
2022-11-12T03:18:24.803Z,8.65
2022-11-12T03:19:56.607Z,8.64
2022-11-12T03:21:28.085Z,8.65
2022-11-12T03:23:00.905Z,8.61
2022-11-12T03:24:33.219Z,8.55
2022-11-12T03:26:05.054Z,8.42
2022-11-12T03:27:37.166Z,8.40
2022-11-12T03:29:08.770Z,8.34
2022-11-12T03:30:40.974Z,8.26
2022-11-12T03:32:12.524Z,8.24
2022-11-12T03:33:44.387Z,8.24
2022-11-12T03:35:16.203Z,8.22
2022-11-12T03:36:47.745Z,8.18
2022-11-12T03:38:19.515Z,8.19
2022-11-12T03:39:51.183Z,8.16
2022-11-12T03:41:22.730Z,8.17
2022-11-12T03:42:54.408Z,8.17
2022-11-12T03:44:25.967Z,8.20
2022-11-12T03:45:58.112Z,8.23
2022-11-12T03:47:29.771Z,8.23
2022-11-12T03:49:02.789Z,8.24
2022-11-12T03:50:34.325Z,8.25
2022-11-12T03:52:05.921Z,8.31
2022-11-12T03:53:37.584Z,8.37
2022-11-12T03:55:09.171Z,8.43
2022-11-12T03:56:40.897Z,8.44
2022-11-12T03:58:12.455Z,8.46
2022-11-12T03:59:44.196Z,8.52
2022-11-12T04:01:16.120Z,8.57
2022-11-12T04:02:47.833Z,8.57
2022-11-12T04:04:19.488Z,8.45
2022-11-12T04:06:10.459Z,8.32
2022-11-12T04:08:00.757Z,8.31
2022-11-12T04:09:32.422Z,8.36
2022-11-12T04:11:03.940Z,8.38
2022-11-12T04:12:53.952Z,8.44
2022-11-12T04:14:25.566Z,8.53
2022-11-12T04:16:19.726Z,8.59
2022-11-12T04:18:10.081Z,8.67
2022-11-12T04:20:00.317Z,8.74
2022-11-12T04:21:51.281Z,8.78
2022-11-12T04:23:22.811Z,8.78
2022-11-12T04:25:12.941Z,8.70
2022-11-12T04:26:44.542Z,8.60
2022-11-12T04:28:16.145Z,8.49
2022-11-12T04:30:06.462Z,8.42
2022-11-12T04:31:38.101Z,8.37
2022-11-12T04:33:09.594Z,8.35
2022-11-12T04:34:42.409Z,8.34
2022-11-12T04:36:14.215Z,8.33
2022-11-12T04:37:46.025Z,8.31
2022-11-12T04:39:17.877Z,8.26
2022-11-12T04:41:08.174Z,8.20
2022-11-12T04:42:58.364Z,8.10
2022-11-12T04:44:48.684Z,7.98
2022-11-12T04:46:20.396Z,7.90
2022-11-12T04:47:52.076Z,7.89
2022-11-12T04:49:24.394Z,7.87
2022-11-12T04:50:57.178Z,7.88
2022-11-12T04:52:29.236Z,7.90
2022-11-12T04:54:00.980Z,7.97
2022-11-12T04:55:32.914Z,8.04
2022-11-12T04:57:04.868Z,8.11
2022-11-12T04:58:36.408Z,8.18
2022-11-12T05:00:08.426Z,8.27
2022-11-12T05:01:40.192Z,8.30
2022-11-12T05:03:11.826Z,8.31
2022-11-12T05:04:43.634Z,8.32
2022-11-12T05:06:34.107Z,8.34
2022-11-12T05:08:05.849Z,8.37
2022-11-12T05:09:37.518Z,8.38
2022-11-12T05:11:12.764Z,8.34
2022-11-12T05:12:44.745Z,8.27
2022-11-12T05:14:16.817Z,8.20
2022-11-12T05:15:48.356Z,8.15
2022-11-12T05:17:19.929Z,8.07
2022-11-12T05:18:52.078Z,8.01
2022-11-12T05:20:24.163Z,7.96
2022-11-12T05:22:17.402Z,7.90
2022-11-12T05:23:53.737Z,7.83
2022-11-12T05:25:25.683Z,7.78
2022-11-12T05:26:57.446Z,7.72
2022-11-12T05:28:29.907Z,7.70
2022-11-12T05:30:01.563Z,7.68
2022-11-12T05:31:33.273Z,7.64
2022-11-12T05:33:05.156Z,7.64
2022-11-12T05:34:36.790Z,7.67
2022-11-12T05:36:08.574Z,7.64
2022-11-12T05:37:40.176Z,7.62
2022-11-12T05:39:11.965Z,7.63
2022-11-12T05:40:46.585Z,7.66
2022-11-12T05:42:18.168Z,7.60
2022-11-12T05:43:49.720Z,7.48
2022-11-12T05:45:21.267Z,7.40
2022-11-12T05:46:52.801Z,7.36
2022-11-12T05:48:25.003Z,7.35
2022-11-12T05:49:57.032Z,7.38
2022-11-12T05:51:28.597Z,7.42
2022-11-12T05:53:00.218Z,7.48
2022-11-12T05:54:31.958Z,7.56
2022-11-12T05:56:06.641Z,7.67
2022-11-12T05:57:38.161Z,7.77
2022-11-12T05:59:10.355Z,7.86
2022-11-12T06:00:41.892Z,7.91
2022-11-12T06:02:13.851Z,7.96
2022-11-12T06:03:45.563Z,7.98
2022-11-12T06:05:37.480Z,8.03
2022-11-12T06:07:11.952Z,8.13
2022-11-12T06:08:44.138Z,8.23
2022-11-12T06:10:20.483Z,8.34
2022-11-12T06:11:56.769Z,8.46
2022-11-12T06:13:28.954Z,8.58
2022-11-12T06:15:01.208Z,8.69
2022-11-12T06:16:33.254Z,8.86
2022-11-12T06:18:05.617Z,9.01
2022-11-12T06:19:38.012Z,9.17
2022-11-12T06:21:28.029Z,9.34
2022-11-12T06:23:01.343Z,9.54
2022-11-12T06:24:35.378Z,9.66
2022-11-12T06:26:07.482Z,9.76
2022-11-12T06:27:40.087Z,9.81
2022-11-12T06:29:11.957Z,9.87
2022-11-12T06:30:50.365Z,9.87
2022-11-12T06:32:24.808Z,9.81
2022-11-12T06:33:56.742Z,9.87
2022-11-12T06:35:28.381Z,9.94
2022-11-12T06:37:00.299Z,9.97
2022-11-12T06:38:32.764Z,9.92
2022-11-12T06:40:04.770Z,9.96
2022-11-12T06:41:36.355Z,9.96
2022-11-12T06:43:08.154Z,10.02
2022-11-12T06:44:39.879Z,10.05
2022-11-12T06:46:12.643Z,10.06
2022-11-12T06:47:44.895Z,10.07
2022-11-12T06:49:16.919Z,10.05
2022-11-12T06:50:48.617Z,9.97
2022-11-12T06:52:20.584Z,9.97
2022-11-12T06:53:52.867Z,9.99
2022-11-12T06:55:24.417Z,9.94
2022-11-12T06:56:56.064Z,9.91
2022-11-12T06:58:27.976Z,9.89
2022-11-12T07:00:00.213Z,9.82
2022-11-12T07:01:32.038Z,9.71
2022-11-12T07:03:07.461Z,9.60
2022-11-12T07:04:44.355Z,9.57
2022-11-12T07:06:49.669Z,9.53
2022-11-12T07:10:50.498Z,9.48
2022-11-12T07:12:22.342Z,9.54
2022-11-12T07:13:54.047Z,9.57
2022-11-12T07:15:25.632Z,9.61
2022-11-12T07:16:57.574Z,9.58
2022-11-12T07:18:29.459Z,9.51
2022-11-12T07:20:04.026Z,9.47
2022-11-12T07:21:35.937Z,9.48
2022-11-12T07:23:09.939Z,9.53
2022-11-12T07:24:41.690Z,9.57
2022-11-12T07:26:13.838Z,9.53
2022-11-12T07:27:45.332Z,9.51
2022-11-12T07:29:25.119Z,9.47
2022-11-12T07:31:08.872Z,9.43
2022-11-12T07:32:45.109Z,9.43
2022-11-12T07:34:20.200Z,9.45
2022-11-12T07:35:59.365Z,9.43
2022-11-12T07:37:31.181Z,9.46
2022-11-12T07:39:03.034Z,9.50
2022-11-12T07:40:35.378Z,9.50
2022-11-12T07:42:06.962Z,9.49
2022-11-12T07:43:38.941Z,9.52
2022-11-12T07:45:14.150Z,9.57
2022-11-12T07:46:45.798Z,9.62
2022-11-12T07:48:20.860Z,9.73
2022-11-12T07:49:52.412Z,9.81
2022-11-12T07:51:24.931Z,9.84
2022-11-12T07:52:58.602Z,9.86
2022-11-12T07:54:31.530Z,9.94
2022-11-12T07:56:05.710Z,10.01
2022-11-12T07:57:37.871Z,9.99
2022-11-12T07:59:10.095Z,10.02
2022-11-12T08:00:41.699Z,10.10
2022-11-12T08:02:15.558Z,10.20
2022-11-12T08:03:47.209Z,10.27
2022-11-12T08:05:21.389Z,10.37
2022-11-12T08:07:01.443Z,10.42
2022-11-12T08:08:49.274Z,10.50
2022-11-12T08:10:20.898Z,10.65
2022-11-12T08:11:54.003Z,10.82
2022-11-12T08:13:25.598Z,11.00
2022-11-12T08:14:57.214Z,11.24
2022-11-12T08:16:28.878Z,11.50
2022-11-12T08:18:00.586Z,11.64
2022-11-12T08:19:32.621Z,11.81
2022-11-12T08:21:04.983Z,11.94
2022-11-12T08:22:38.741Z,11.98
2022-11-12T08:24:10.692Z,11.99
2022-11-12T08:25:42.637Z,11.92
2022-11-12T08:27:15.559Z,11.90
2022-11-12T08:28:47.355Z,11.97
2022-11-12T08:30:19.586Z,11.87
2022-11-12T08:31:51.281Z,11.79
2022-11-12T08:33:22.907Z,11.80
2022-11-12T08:34:54.823Z,11.79
2022-11-12T08:36:29.510Z,11.81
2022-11-12T08:38:01.930Z,11.87
2022-11-12T08:39:35.887Z,11.91
2022-11-12T08:41:08.536Z,11.89
2022-11-12T08:42:40.456Z,11.88
2022-11-12T08:44:12.297Z,11.96
2022-11-12T08:45:44.443Z,12.12
2022-11-12T08:47:16.424Z,12.28
2022-11-12T08:48:48.301Z,12.32
2022-11-12T08:50:20.048Z,12.33
2022-11-12T08:51:51.900Z,12.26
2022-11-12T08:53:23.925Z,12.22
2022-11-12T08:54:55.669Z,12.16
2022-11-12T08:56:27.288Z,12.22
2022-11-12T08:58:02.216Z,12.27
2022-11-12T08:59:34.185Z,12.35
2022-11-12T09:01:06.326Z,12.43
2022-11-12T09:02:37.873Z,12.54
2022-11-12T09:04:09.996Z,12.69
2022-11-12T09:05:42.217Z,12.92
2022-11-12T09:07:43.409Z,13.09
2022-11-12T09:09:05.477Z,13.40
2022-11-12T09:10:37.424Z,13.63
2022-11-12T09:12:15.145Z,13.91
2022-11-12T09:13:49.816Z,14.16
2022-11-12T09:15:38.607Z,14.33
2022-11-12T09:17:10.740Z,14.45
2022-11-12T09:18:42.423Z,14.43
2022-11-12T09:20:14.079Z,14.28
2022-11-12T09:21:48.353Z,14.13
2022-11-12T09:23:20.458Z,13.90
2022-11-12T09:24:52.252Z,13.65
2022-11-12T09:26:23.941Z,13.58
2022-11-12T09:27:56.743Z,13.58
2022-11-12T09:29:28.617Z,13.62
2022-11-12T09:31:00.327Z,13.74
2022-11-12T09:32:31.955Z,13.84
2022-11-12T09:34:04.115Z,13.84
2022-11-12T09:35:35.799Z,13.83
2022-11-12T09:37:07.697Z,13.74
2022-11-12T09:38:39.536Z,13.61
2022-11-12T09:40:15.976Z,13.48
2022-11-12T09:41:47.886Z,13.30
2022-11-12T09:43:23.697Z,13.06
2022-11-12T09:44:58.095Z,12.94
2022-11-12T09:46:36.698Z,12.81
2022-11-12T09:48:09.192Z,12.74
2022-11-12T09:49:58.170Z,12.73
2022-11-12T09:51:31.513Z,12.73
2022-11-12T09:53:13.932Z,12.70
2022-11-12T09:54:45.451Z,12.59
2022-11-12T09:56:17.219Z,12.47
2022-11-12T09:57:49.004Z,12.33
2022-11-12T09:59:21.019Z,12.20
2022-11-12T10:01:03.359Z,12.08
2022-11-12T10:02:39.855Z,11.95
2022-11-12T10:04:47.207Z,11.89
2022-11-12T10:06:30.051Z,11.86
2022-11-12T10:08:13.651Z,11.85
2022-11-12T10:09:52.416Z,11.78
2022-11-12T10:12:04.065Z,11.73
2022-11-12T10:13:36.108Z,11.72
2022-11-12T10:15:35.493Z,11.74
2022-11-12T10:17:09.486Z,11.72
2022-11-12T10:18:41.287Z,11.70
2022-11-12T10:20:12.886Z,11.73
2022-11-12T10:21:56.951Z,11.72
2022-11-12T10:23:29.656Z,11.81
2022-11-12T10:25:10.348Z,11.88
2022-11-12T10:26:41.929Z,12.00
2022-11-12T10:28:20.042Z,12.02
2022-11-12T10:29:59.919Z,11.99
2022-11-12T10:31:31.581Z,11.98
2022-11-12T10:33:03.340Z,11.92
2022-11-12T10:34:36.171Z,11.88
2022-11-12T10:36:26.517Z,11.93
2022-11-12T10:38:01.771Z,12.06
2022-11-12T10:39:37.419Z,12.16
2022-11-12T10:41:18.687Z,12.23
2022-11-12T10:43:04.013Z,12.34
2022-11-12T10:44:35.981Z,12.53
2022-11-12T10:46:39.943Z,12.63
2022-11-12T10:48:29.108Z,12.65
2022-11-12T10:50:13.286Z,12.62
2022-11-12T10:51:54.327Z,12.59
2022-11-12T10:53:39.110Z,12.58
2022-11-12T10:55:18.222Z,12.53
2022-11-12T10:56:54.989Z,12.54
2022-11-12T10:58:27.434Z,12.62
2022-11-12T11:00:08.609Z,12.68
2022-11-12T11:01:45.376Z,12.64
2022-11-12T11:03:20.142Z,12.51
2022-11-12T11:04:51.852Z,12.37
2022-11-12T11:06:25.059Z,12.27
2022-11-12T11:07:57.300Z,12.21
2022-11-12T11:09:28.985Z,12.26
2022-11-12T11:11:20.925Z,12.29
2022-11-12T11:13:09.292Z,12.34
2022-11-12T11:14:41.087Z,12.42
2022-11-12T11:16:14.142Z,12.48
2022-11-12T11:17:45.989Z,12.42
2022-11-12T11:19:17.530Z,12.37
2022-11-12T11:20:51.318Z,12.36
2022-11-12T11:22:26.193Z,12.34
2022-11-12T11:24:00.615Z,12.36
2022-11-12T11:25:32.856Z,12.42
2022-11-12T11:27:10.469Z,12.41
2022-11-12T11:28:46.523Z,12.32
2022-11-12T11:30:21.261Z,12.28
2022-11-12T11:31:55.805Z,12.30
2022-11-12T11:33:27.695Z,12.30
2022-11-12T11:35:15.568Z,12.27
2022-11-12T11:37:16.303Z,12.34
2022-11-12T11:39:11.185Z,12.38
2022-11-12T11:40:49.685Z,12.29
2022-11-12T11:42:30.437Z,12.24
2022-11-12T11:44:02.424Z,12.30
2022-11-12T11:45:43.214Z,12.41
2022-11-12T11:47:27.757Z,12.56
2022-11-12T11:49:12.727Z,12.75
2022-11-12T11:50:52.881Z,12.98
2022-11-12T11:52:33.741Z,13.21
2022-11-12T11:54:13.878Z,13.44
2022-11-12T11:55:45.463Z,13.58
2022-11-12T11:57:20.527Z,13.68
2022-11-12T11:58:55.071Z,13.79
2022-11-12T12:00:30.660Z,13.94
2022-11-12T12:02:04.886Z,14.09
2022-11-12T12:03:45.943Z,14.28
2022-11-12T12:05:41.073Z,14.47
2022-11-12T12:07:25.852Z,14.66
2022-11-12T12:09:09.689Z,14.69
2022-11-12T12:11:07.058Z,14.77
2022-11-12T12:12:39.121Z,14.74
2022-11-12T12:14:11.130Z,14.86
2022-11-12T12:15:43.312Z,15.04
2022-11-12T12:17:18.012Z,15.20
2022-11-12T12:18:55.405Z,15.40
2022-11-12T12:20:30.448Z,15.70
2022-11-12T12:22:02.488Z,15.94
2022-11-12T12:23:37.018Z,15.96
2022-11-12T12:25:12.780Z,15.93
2022-11-12T12:26:51.491Z,15.83
2022-11-12T12:28:42.271Z,15.81
2022-11-12T12:30:23.471Z,15.79
2022-11-12T12:32:03.943Z,15.78
2022-11-12T12:33:40.940Z,15.50
2022-11-12T12:35:16.960Z,15.07
2022-11-12T12:36:50.423Z,14.70
2022-11-12T12:38:25.298Z,14.53
2022-11-12T12:40:01.668Z,14.59
2022-11-12T12:41:37.579Z,14.84
2022-11-12T12:43:09.579Z,15.18
2022-11-12T12:45:08.221Z,15.31
2022-11-12T12:46:41.369Z,15.43
2022-11-12T12:48:19.411Z,15.56
2022-11-12T12:49:51.250Z,15.77
2022-11-12T12:51:22.762Z,15.99
2022-11-12T12:53:16.398Z,16.23
2022-11-12T12:54:48.454Z,16.17
2022-11-12T12:56:23.327Z,16.22
2022-11-12T12:58:00.940Z,16.39
2022-11-12T12:59:32.751Z,16.61
2022-11-12T13:01:22.672Z,16.84
2022-11-12T13:02:54.449Z,16.92
2022-11-12T13:04:45.039Z,16.99
2022-11-12T13:06:22.899Z,17.02
2022-11-12T13:07:54.759Z,16.76
2022-11-12T13:09:26.689Z,16.69
2022-11-12T13:10:59.814Z,16.71
2022-11-12T13:12:50.029Z,16.76
2022-11-12T13:14:36.817Z,16.58
2022-11-12T13:16:08.442Z,16.37
2022-11-12T13:17:44.086Z,16.17
2022-11-12T13:19:26.352Z,15.98
2022-11-12T13:21:08.157Z,15.82
2022-11-12T13:22:39.699Z,15.78
2022-11-12T13:24:11.359Z,15.79
2022-11-12T13:25:42.905Z,15.61
2022-11-12T13:27:15.030Z,15.53
2022-11-12T13:29:13.024Z,15.48
2022-11-12T13:30:44.980Z,15.40
2022-11-12T13:32:35.637Z,15.22
2022-11-12T13:34:36.572Z,14.94
2022-11-12T13:36:28.964Z,14.71
2022-11-12T13:38:09.647Z,14.52
2022-11-12T13:39:41.381Z,14.37
2022-11-12T13:41:16.735Z,14.30
2022-11-12T13:42:48.738Z,14.25
2022-11-12T13:44:20.460Z,14.20
2022-11-12T13:45:54.171Z,14.17
2022-11-12T13:47:29.847Z,14.07
2022-11-12T13:49:01.715Z,13.95
2022-11-12T13:50:37.827Z,13.90
2022-11-12T13:52:15.192Z,13.83
2022-11-12T13:53:47.726Z,13.76
2022-11-12T13:55:20.398Z,13.72
2022-11-12T13:56:52.058Z,13.75
2022-11-12T13:58:27.478Z,13.71
2022-11-12T14:00:11.593Z,13.58
2022-11-12T14:01:43.891Z,13.48
2022-11-12T14:03:16.629Z,13.28
2022-11-12T14:04:48.524Z,13.22
2022-11-12T14:06:26.230Z,13.18
2022-11-12T14:08:16.464Z,13.12
2022-11-12T14:09:53.941Z,13.12
2022-11-12T14:11:25.574Z,13.07
2022-11-12T14:13:12.617Z,13.02
2022-11-12T14:15:03.401Z,12.94
2022-11-12T14:16:50.557Z,12.85
2022-11-12T14:18:45.393Z,12.61
2022-11-12T14:20:41.833Z,12.44
2022-11-12T14:22:21.120Z,12.36
2022-11-12T14:23:52.845Z,12.31
2022-11-12T14:25:25.538Z,12.18
2022-11-12T14:26:57.569Z,12.06
2022-11-12T14:28:35.935Z,11.96
2022-11-12T14:30:10.812Z,11.88
2022-11-12T14:31:42.663Z,11.71
2022-11-12T14:33:18.226Z,11.62
2022-11-12T14:34:49.826Z,11.56
2022-11-12T14:36:21.464Z,11.45
2022-11-12T14:38:13.442Z,11.36
2022-11-12T14:39:45.245Z,11.27
2022-11-12T14:41:33.828Z,11.23
2022-11-12T14:43:05.612Z,11.23
2022-11-12T14:44:37.507Z,11.22
2022-11-12T14:46:20.870Z,11.23
2022-11-12T14:47:53.238Z,11.15
2022-11-12T14:49:45.102Z,11.03
2022-11-12T14:51:17.287Z,10.93
2022-11-12T14:52:49.759Z,10.89
2022-11-12T14:54:31.458Z,10.89
2022-11-12T14:56:03.854Z,10.88
2022-11-12T14:57:36.495Z,10.92
2022-11-12T14:59:12.277Z,10.99
2022-11-12T15:00:47.687Z,11.07
2022-11-12T15:02:41.652Z,11.10
2022-11-12T15:04:20.165Z,10.93
2022-11-12T15:05:55.279Z,10.79
2022-11-12T15:07:34.009Z,10.62
2022-11-12T15:09:11.849Z,10.48
2022-11-12T15:10:44.645Z,10.35
2022-11-12T15:12:20.945Z,10.24
2022-11-12T15:13:55.603Z,10.14
2022-11-12T15:15:28.306Z,10.07
2022-11-12T15:17:00.952Z,10.02
2022-11-12T15:18:35.643Z,9.97
2022-11-12T15:20:17.278Z,9.92
2022-11-12T15:23:32.157Z,9.91
2022-11-12T15:25:30.010Z,9.93
2022-11-12T15:27:03.172Z,9.89
2022-11-12T15:28:35.073Z,9.90
2022-11-12T15:30:16.656Z,9.86
2022-11-12T15:31:52.712Z,9.87
2022-11-12T15:33:24.563Z,9.87
2022-11-12T15:35:01.566Z,9.87
2022-11-12T15:36:36.248Z,9.89
2022-11-12T15:38:11.255Z,9.91
2022-11-12T15:39:43.599Z,9.96
2022-11-12T15:41:24.914Z,9.96
2022-11-12T15:42:56.505Z,9.93
2022-11-12T15:44:31.071Z,9.93
2022-11-12T15:46:02.738Z,9.92
2022-11-12T15:47:34.365Z,9.91
2022-11-12T15:49:12.769Z,9.92
2022-11-12T15:50:47.908Z,9.91
2022-11-12T15:52:19.904Z,9.95
2022-11-12T15:53:51.759Z,9.96
2022-11-12T15:55:23.371Z,9.99
2022-11-12T15:56:54.937Z,10.01
2022-11-12T15:58:33.466Z,10.06
2022-11-12T16:00:08.388Z,10.12
2022-11-12T16:01:40.415Z,10.12
2022-11-12T16:03:17.635Z,10.15
2022-11-12T16:04:49.636Z,10.17
2022-11-12T16:06:21.958Z,10.15
2022-11-12T16:07:53.796Z,10.14
2022-11-12T16:09:25.660Z,10.17
2022-11-12T16:10:57.358Z,10.21
2022-11-12T16:12:30.557Z,10.27
2022-11-12T16:14:03.253Z,10.30
2022-11-12T16:15:34.814Z,10.31
2022-11-12T16:17:06.999Z,10.34
2022-11-12T16:18:39.010Z,10.38
2022-11-12T16:20:17.655Z,10.43
2022-11-12T16:21:49.508Z,10.45
2022-11-12T16:23:21.628Z,10.48
2022-11-12T16:24:53.202Z,10.45
2022-11-12T16:26:26.548Z,10.47
2022-11-12T16:27:58.136Z,10.47
2022-11-12T16:29:30.182Z,10.45
2022-11-12T16:31:01.794Z,10.42
2022-11-12T16:32:33.416Z,10.40
2022-11-12T16:34:05.136Z,10.37
2022-11-12T16:35:36.842Z,10.40
2022-11-12T16:37:10.443Z,10.37
2022-11-12T16:38:42.078Z,10.35
2022-11-12T16:40:14.821Z,10.33
2022-11-12T16:41:46.495Z,10.31
2022-11-12T16:43:18.339Z,10.31
2022-11-12T16:44:49.841Z,10.32
2022-11-12T16:46:24.217Z,10.30
2022-11-12T16:47:56.142Z,10.31
2022-11-12T16:49:28.066Z,10.32
2022-11-12T16:51:00.750Z,10.34
2022-11-12T16:52:32.267Z,10.37
2022-11-12T16:54:04.090Z,10.41
2022-11-12T16:55:35.717Z,10.45
2022-11-12T16:57:09.803Z,10.42
2022-11-12T16:58:41.578Z,10.43
2022-11-12T17:00:14.252Z,10.42
2022-11-12T17:01:45.923Z,10.39
2022-11-12T17:03:17.470Z,10.39
2022-11-12T17:04:49.048Z,10.35
2022-11-12T17:06:20.690Z,10.34
2022-11-12T17:07:55.919Z,10.34
2022-11-12T17:09:27.759Z,10.31
2022-11-12T17:11:00.946Z,10.27
2022-11-12T17:12:32.622Z,10.20
2022-11-12T17:14:11.176Z,10.17
2022-11-12T17:15:42.967Z,10.16
2022-11-12T17:17:14.592Z,10.15
2022-11-12T17:18:46.583Z,10.12
2022-11-12T17:20:18.529Z,10.14
2022-11-12T17:21:52.139Z,10.17
2022-11-12T17:23:24.666Z,10.17
2022-11-12T17:24:56.614Z,10.17
2022-11-12T17:26:32.992Z,10.17
2022-11-12T17:28:05.662Z,10.16
2022-11-12T17:29:40.533Z,10.16
2022-11-12T17:31:30.350Z,10.20
2022-11-12T17:33:07.149Z,10.19
2022-11-12T17:34:46.436Z,10.16
2022-11-12T17:36:22.412Z,10.13
2022-11-12T17:38:01.840Z,10.08
2022-11-12T17:39:37.563Z,10.03
2022-11-12T17:41:10.207Z,10.02
2022-11-12T17:42:41.703Z,9.98
2022-11-12T17:44:15.310Z,9.98
2022-11-12T17:45:50.639Z,9.97
2022-11-12T17:47:22.432Z,9.95
2022-11-12T17:48:55.071Z,9.93
2022-11-12T17:50:26.612Z,9.91
2022-11-12T17:51:58.427Z,9.88
2022-11-12T17:53:30.569Z,9.89
2022-11-12T17:55:02.327Z,9.87
2022-11-12T17:56:36.886Z,9.86
2022-11-12T17:58:09.093Z,9.82
2022-11-12T17:59:40.860Z,9.83
2022-11-12T18:01:13.561Z,9.83
2022-11-12T18:02:45.266Z,9.84
2022-11-12T18:04:16.932Z,9.84
2022-11-12T18:05:56.148Z,9.86
2022-11-12T18:07:27.863Z,9.86
2022-11-12T18:09:04.667Z,9.84
2022-11-12T18:10:36.793Z,9.82
2022-11-12T18:12:08.415Z,9.80
2022-11-12T18:13:40.106Z,9.79
2022-11-12T18:15:13.414Z,9.82
2022-11-12T18:16:45.175Z,9.80
2022-11-12T18:18:16.964Z,9.78
2022-11-12T18:19:48.524Z,9.77
2022-11-12T18:21:20.019Z,9.76
2022-11-12T18:22:51.655Z,9.76
2022-11-12T18:24:23.647Z,9.73
2022-11-12T18:25:55.278Z,9.72
2022-11-12T18:27:26.906Z,9.71
2022-11-12T18:28:58.826Z,9.73
2022-11-12T18:30:31.450Z,9.73
2022-11-12T18:32:03.285Z,9.73
2022-11-12T18:33:36.988Z,9.76
2022-11-12T18:35:09.314Z,9.76
2022-11-12T18:36:42.009Z,9.77
2022-11-12T18:38:13.537Z,9.78
2022-11-12T18:39:45.428Z,9.77
2022-11-12T18:41:17.623Z,9.78
2022-11-12T18:42:49.268Z,9.78
2022-11-12T18:44:25.778Z,9.77
2022-11-12T18:45:59.341Z,9.77
2022-11-12T18:47:31.623Z,9.77
2022-11-12T18:49:03.476Z,9.77
2022-11-12T18:50:35.178Z,9.77
2022-11-12T18:52:06.881Z,9.74
2022-11-12T18:53:38.928Z,9.74
2022-11-12T18:55:10.693Z,9.74
2022-11-12T18:56:43.034Z,9.75
2022-11-12T18:58:15.047Z,9.74
2022-11-12T19:04:45.188Z,9.72
2022-11-12T19:10:35.902Z,9.70
2022-11-12T19:12:07.722Z,9.70
2022-11-12T19:13:39.583Z,9.68
2022-11-12T19:15:11.523Z,9.70
2022-11-12T19:16:44.764Z,9.71
2022-11-12T19:18:17.005Z,9.75
2022-11-12T19:19:49.525Z,9.73
2022-11-12T19:21:22.627Z,9.73
2022-11-12T19:22:54.535Z,9.75
2022-11-12T19:24:26.289Z,9.78
2022-11-12T19:26:00.506Z,9.82
2022-11-12T19:27:32.077Z,9.82
2022-11-12T19:29:04.240Z,9.83
2022-11-12T19:30:35.998Z,9.86
2022-11-12T19:32:08.032Z,9.84
2022-11-12T19:33:40.319Z,9.82
2022-11-12T19:35:11.966Z,9.83
2022-11-12T19:36:43.711Z,9.83
2022-11-12T19:38:22.327Z,9.88
2022-11-12T19:40:33.657Z,9.88
2022-11-12T19:42:23.690Z,9.86
2022-11-12T19:51:26.969Z,9.75
2022-11-12T19:52:58.888Z,9.72
2022-11-12T19:55:09.658Z,9.72
2022-11-12T19:57:27.576Z,9.72
2022-11-12T20:01:06.291Z,9.69
2022-11-12T20:02:39.986Z,9.67
2022-11-12T20:04:13.192Z,9.67
2022-11-12T20:05:44.909Z,9.68
2022-11-12T20:07:16.818Z,9.71
2022-11-12T20:08:48.562Z,9.75
2022-11-12T20:10:20.077Z,9.77
2022-11-12T20:11:51.813Z,9.83
2022-11-12T20:13:23.473Z,9.84
2022-11-12T20:14:55.010Z,9.81
2022-11-12T20:16:26.604Z,9.78
2022-11-12T20:17:58.202Z,9.75
2022-11-12T20:19:30.150Z,9.73
2022-11-12T20:21:05.060Z,9.70
2022-11-12T20:22:36.925Z,9.69
2022-11-12T20:24:10.257Z,9.70
2022-11-12T20:25:41.832Z,9.70
2022-11-12T20:27:13.998Z,9.74
2022-11-12T20:28:45.594Z,9.77
2022-11-12T20:30:17.435Z,9.79
2022-11-12T20:31:49.024Z,9.81
2022-11-12T20:33:20.892Z,9.80
2022-11-12T20:34:52.534Z,9.77
2022-11-12T20:36:24.187Z,9.75
2022-11-12T20:37:55.794Z,9.71
2022-11-12T20:39:27.618Z,9.71
2022-11-12T20:41:00.375Z,9.72
2022-11-12T20:42:32.039Z,9.72
2022-11-12T20:44:03.792Z,9.71
2022-11-12T20:45:36.644Z,9.68
2022-11-12T20:47:08.306Z,9.68
2022-11-12T20:48:43.364Z,9.68
2022-11-12T20:50:15.606Z,9.72
2022-11-12T20:51:47.160Z,9.71
2022-11-12T20:53:18.757Z,9.75
2022-11-12T20:54:50.240Z,9.82
2022-11-12T20:56:22.270Z,9.89
2022-11-12T20:57:54.145Z,9.94
2022-11-12T20:59:26.122Z,9.99
2022-11-12T21:00:57.920Z,9.96
2022-11-12T21:02:29.881Z,9.94
2022-11-12T21:04:01.645Z,9.92
2022-11-12T21:05:33.294Z,9.90
2022-11-12T21:07:05.765Z,9.88